createdAt,value
2023-03-26T00:01:40.559Z,12.75
2023-03-26T00:04:08.241Z,14.43
2023-03-26T00:06:40.069Z,12.63
2023-03-26T00:09:10.868Z,10.48
2023-03-26T00:11:38.329Z,11.57
2023-03-26T00:14:05.847Z,14.18
2023-03-26T00:19:04.207Z,10.00
2023-03-26T00:21:32.010Z,15.50
2023-03-26T00:24:04.912Z,11.15
2023-03-26T00:26:39.870Z,11.00
2023-03-26T00:29:09.919Z,11.63
2023-03-26T00:31:42.519Z,12.07
2023-03-26T00:34:10.675Z,15.73
2023-03-26T00:36:42.383Z,13.18
2023-03-26T00:39:12.074Z,14.98
2023-03-26T00:41:43.275Z,12.82
2023-03-26T00:44:11.678Z,14.45
2023-03-26T00:46:39.446Z,14.80
2023-03-26T00:49:10.925Z,14.43
2023-03-26T00:51:39.521Z,15.98
2023-03-26T00:54:11.193Z,13.05
2023-03-26T00:56:38.948Z,10.82
2023-03-26T00:59:06.321Z,14.73
2023-03-26T01:01:36.320Z,9.35
2023-03-26T01:04:31.789Z,12.98
2023-03-26T01:07:09.588Z,16.00
2023-03-26T01:09:50.328Z,19.52
2023-03-26T01:12:25.855Z,14.32
2023-03-26T01:15:00.854Z,12.50
2023-03-26T01:17:34.368Z,10.73
2023-03-26T01:20:20.789Z,8.90
2023-03-26T01:22:58.325Z,11.95
2023-03-26T01:25:32.206Z,9.45
2023-03-26T01:30:42.448Z,13.10
2023-03-26T01:33:34.132Z,18.05
2023-03-26T01:36:13.662Z,14.02
2023-03-26T01:39:19.783Z,11.73
2023-03-26T01:42:03.086Z,9.85
2023-03-26T01:44:36.781Z,13.15
2023-03-26T01:47:07.998Z,9.00
2023-03-26T01:49:35.283Z,7.55
2023-03-26T01:52:02.496Z,9.32
2023-03-26T01:54:32.277Z,10.52
2023-03-26T01:57:27.150Z,10.95
2023-03-26T02:00:12.937Z,7.82
2023-03-26T02:03:03.306Z,16.38
2023-03-26T02:05:39.226Z,10.05
2023-03-26T02:08:23.633Z,13.15
2023-03-26T02:11:02.491Z,10.40
2023-03-26T02:13:30.390Z,8.18
2023-03-26T02:16:06.088Z,10.68
2023-03-26T02:18:39.205Z,12.45
2023-03-26T02:21:14.224Z,8.18
2023-03-26T02:23:48.691Z,6.28
2023-03-26T02:26:25.505Z,9.43
2023-03-26T02:28:54.434Z,7.03
2023-03-26T02:31:26.843Z,7.68
2023-03-26T02:33:57.056Z,7.85
2023-03-26T02:36:28.030Z,11.23
2023-03-26T02:39:02.989Z,6.75
2023-03-26T02:41:33.413Z,9.18
2023-03-26T02:44:00.953Z,10.20
2023-03-26T02:46:28.130Z,11.98
2023-03-26T02:48:59.717Z,10.55
2023-03-26T02:51:28.433Z,11.13
2023-03-26T02:53:56.396Z,11.02
2023-03-26T02:58:58.281Z,8.98
2023-03-26T03:01:26.480Z,7.32
2023-03-26T03:03:55.528Z,8.52
2023-03-26T03:06:23.667Z,7.78
2023-03-26T03:08:54.229Z,9.75
2023-03-26T03:11:29.978Z,12.80
2023-03-26T03:13:57.438Z,7.70
2023-03-26T03:18:58.254Z,6.82
2023-03-26T03:21:28.625Z,6.45
2023-03-26T03:24:00.002Z,11.45
2023-03-26T03:26:38.850Z,8.68
2023-03-26T03:29:07.372Z,8.98
2023-03-26T03:31:35.790Z,12.45
2023-03-26T03:34:04.181Z,8.65
2023-03-26T03:36:33.256Z,9.98
2023-03-26T03:39:02.834Z,8.13
2023-03-26T03:41:30.908Z,11.90
2023-03-26T03:43:59.943Z,7.22
2023-03-26T03:46:29.009Z,7.03
2023-03-26T03:48:57.622Z,7.03
2023-03-26T03:51:29.510Z,10.18
2023-03-26T03:53:56.830Z,7.82
2023-03-26T03:56:27.125Z,10.52
2023-03-26T03:58:56.356Z,8.73
2023-03-26T04:01:24.065Z,5.85
2023-03-26T04:03:53.408Z,6.97
2023-03-26T04:06:21.940Z,7.45
2023-03-26T04:08:49.097Z,10.25
2023-03-26T04:11:26.412Z,9.02
2023-03-26T04:13:56.100Z,6.97
2023-03-26T04:16:26.120Z,7.53
2023-03-26T04:18:53.587Z,8.02
2023-03-26T04:21:21.226Z,7.45
2023-03-26T04:23:48.590Z,10.70
2023-03-26T04:26:21.346Z,5.72
2023-03-26T04:28:56.823Z,5.78
2023-03-26T04:31:29.469Z,6.03
2023-03-26T04:34:07.987Z,8.95
2023-03-26T04:36:35.723Z,7.75
2023-03-26T04:39:05.317Z,5.53
2023-03-26T04:41:34.005Z,7.90
2023-03-26T04:44:02.214Z,6.47
2023-03-26T04:46:33.749Z,5.60
2023-03-26T04:49:02.047Z,6.28
2023-03-26T04:51:42.090Z,6.68
2023-03-26T04:54:14.476Z,5.25
2023-03-26T04:57:03.335Z,6.97
2023-03-26T04:59:37.268Z,7.13
2023-03-26T05:04:39.719Z,7.55
2023-03-26T05:07:07.605Z,11.40
2023-03-26T05:09:35.790Z,6.90
2023-03-26T05:12:03.825Z,6.80
2023-03-26T05:14:31.020Z,6.90
2023-03-26T05:16:58.939Z,7.65
2023-03-26T05:19:26.156Z,7.32
2023-03-26T05:21:53.520Z,7.32
2023-03-26T05:24:20.903Z,6.35
2023-03-26T05:26:48.046Z,5.40
2023-03-26T05:29:18.247Z,11.18
2023-03-26T05:31:45.433Z,7.93
2023-03-26T05:34:15.464Z,7.65
2023-03-26T05:36:45.128Z,9.75
2023-03-26T05:39:14.362Z,7.70
2023-03-26T05:41:41.557Z,7.70
2023-03-26T05:44:08.708Z,5.25
2023-03-26T05:46:38.141Z,8.35
2023-03-26T05:49:05.489Z,7.95
2023-03-26T05:51:32.611Z,6.57
2023-03-26T05:53:59.735Z,5.57
2023-03-26T05:56:26.894Z,6.78
2023-03-26T05:58:56.170Z,7.35
2023-03-26T06:01:35.693Z,6.20
2023-03-26T06:04:06.338Z,7.10
2023-03-26T06:06:53.260Z,5.75
2023-03-26T06:09:30.661Z,5.43
2023-03-26T06:12:16.744Z,6.95
2023-03-26T06:14:46.527Z,6.75
2023-03-26T06:17:16.750Z,11.07
2023-03-26T06:19:53.460Z,7.57
2023-03-26T06:22:24.498Z,9.02
2023-03-26T06:24:59.441Z,9.07
2023-03-26T06:27:37.889Z,7.15
2023-03-26T06:30:21.749Z,7.00
2023-03-26T06:32:58.797Z,8.18
2023-03-26T06:35:36.780Z,6.78
2023-03-26T06:38:16.448Z,9.35
2023-03-26T06:40:45.550Z,7.80
2023-03-26T06:43:25.458Z,7.50
2023-03-26T06:45:55.839Z,5.93
2023-03-26T06:48:23.110Z,9.65
2023-03-26T06:51:15.931Z,7.15
2023-03-26T06:53:44.652Z,8.93
2023-03-26T06:56:22.540Z,9.27
2023-03-26T06:58:51.685Z,9.20
2023-03-26T07:01:27.742Z,7.53
2023-03-26T07:04:00.920Z,10.90
2023-03-26T07:06:41.423Z,10.70
2023-03-26T07:09:14.281Z,10.05
2023-03-26T07:11:43.918Z,10.95
2023-03-26T07:14:13.471Z,11.82
2023-03-26T07:16:42.007Z,10.18
2023-03-26T07:19:09.356Z,9.63
2023-03-26T07:21:38.862Z,11.88
2023-03-26T07:24:17.897Z,13.10
2023-03-26T07:27:09.134Z,8.40
2023-03-26T07:29:52.772Z,9.13
2023-03-26T07:33:05.598Z,10.13
2023-03-26T07:36:11.706Z,11.32
2023-03-26T07:42:24.022Z,11.35
2023-03-26T07:45:39.426Z,10.50
2023-03-26T07:48:31.704Z,10.82
2023-03-26T07:51:00.695Z,10.40
2023-03-26T07:53:31.557Z,12.80
2023-03-26T07:56:38.286Z,9.05
2023-03-26T07:59:29.596Z,11.82
2023-03-26T08:03:04.434Z,12.95
2023-03-26T08:05:53.490Z,8.70
2023-03-26T08:08:53.002Z,12.82
2023-03-26T08:11:57.107Z,13.15
2023-03-26T08:15:10.016Z,13.77
2023-03-26T08:18:08.523Z,11.00
2023-03-26T08:21:03.710Z,11.45
2023-03-26T08:24:00.120Z,14.40
2023-03-26T08:26:52.952Z,13.00
2023-03-26T08:32:19.751Z,8.20
2023-03-26T08:34:53.741Z,9.18
2023-03-26T08:37:22.018Z,9.02
2023-03-26T08:39:54.574Z,10.88
2023-03-26T08:46:16.431Z,11.88
2023-03-26T08:49:26.272Z,9.98
2023-03-26T08:52:38.667Z,9.43
2023-03-26T08:59:04.480Z,8.90
2023-03-26T09:02:24.012Z,11.13
2023-03-26T09:05:58.024Z,13.40
2023-03-26T09:09:30.493Z,11.45
2023-03-26T09:12:42.734Z,10.93
2023-03-26T09:15:36.933Z,13.25
2023-03-26T09:18:33.985Z,9.15
2023-03-26T09:21:23.318Z,10.07
2023-03-26T09:24:17.902Z,6.75
2023-03-26T09:27:16.270Z,11.35
2023-03-26T09:30:38.355Z,10.45
2023-03-26T09:33:52.342Z,8.60
2023-03-26T09:37:06.773Z,7.10
2023-03-26T09:40:27.404Z,8.77
2023-03-26T09:43:34.200Z,6.25
2023-03-26T09:46:29.236Z,7.55
2023-03-26T09:49:47.528Z,12.55
2023-03-26T09:52:55.157Z,17.45
2023-03-26T09:55:35.505Z,13.10
2023-03-26T09:58:12.934Z,13.15
2023-03-26T10:01:13.580Z,14.88
2023-03-26T10:03:59.335Z,15.00
2023-03-26T10:06:47.149Z,15.50
2023-03-26T10:09:51.180Z,12.50
2023-03-26T10:12:57.627Z,17.73
2023-03-26T10:15:35.407Z,17.20
2023-03-26T10:18:26.691Z,15.05
2023-03-26T10:22:00.920Z,16.05
2023-03-26T10:25:02.954Z,12.90
2023-03-26T10:27:36.596Z,12.80
2023-03-26T10:33:03.732Z,14.38
2023-03-26T10:35:44.677Z,14.07
2023-03-26T10:38:43.720Z,14.60
2023-03-26T10:44:44.542Z,11.48
2023-03-26T10:50:29.357Z,8.80
2023-03-26T10:53:31.903Z,14.13
2023-03-26T10:56:32.902Z,9.70
2023-03-26T10:59:14.337Z,13.02
2023-03-26T11:03:10.292Z,12.80
2023-03-26T11:05:46.794Z,14.93
2023-03-26T11:08:39.873Z,7.78
2023-03-26T11:11:55.930Z,11.20
2023-03-26T11:14:56.491Z,9.27
2023-03-26T11:18:06.993Z,11.65
2023-03-26T11:24:42.604Z,9.18
2023-03-26T11:28:29.449Z,13.35
2023-03-26T11:31:39.485Z,12.68
2023-03-26T11:34:31.519Z,9.93
2023-03-26T11:37:16.549Z,8.48
2023-03-26T11:39:57.741Z,7.72
2023-03-26T11:42:26.240Z,9.23
2023-03-26T11:45:32.963Z,9.63
2023-03-26T11:51:40.419Z,9.23
2023-03-26T11:54:14.386Z,6.85
2023-03-26T11:57:21.449Z,10.38
2023-03-26T12:00:17.819Z,10.98
2023-03-26T12:02:59.843Z,12.63
2023-03-26T12:05:51.512Z,9.55
2023-03-26T12:08:41.755Z,8.45
2023-03-26T12:11:14.787Z,12.25
2023-03-26T12:13:55.368Z,11.13
2023-03-26T12:16:25.466Z,11.65
2023-03-26T12:19:27.392Z,9.70
2023-03-26T12:21:58.867Z,6.80
2023-03-26T12:24:34.845Z,11.18
2023-03-26T12:27:22.722Z,8.05
2023-03-26T12:30:31.553Z,10.10
2023-03-26T12:33:07.661Z,8.52
2023-03-26T12:35:37.475Z,6.25
2023-03-26T12:38:34.488Z,6.53
2023-03-26T12:44:45.139Z,9.60
2023-03-26T12:44:48.895Z,6.60
2023-03-26T12:47:57.823Z,8.93
2023-03-26T12:50:45.934Z,6.85
2023-03-26T12:53:44.766Z,8.65
2023-03-26T12:59:32.117Z,11.50
2023-03-26T13:02:55.217Z,11.50
2023-03-26T13:05:35.529Z,8.75
2023-03-26T13:09:22.055Z,10.45
2023-03-26T13:12:26.299Z,10.35
2023-03-26T13:15:01.113Z,11.73
2023-03-26T13:18:32.427Z,12.32
2023-03-26T13:21:18.235Z,10.63
2023-03-26T13:24:07.312Z,14.27
2023-03-26T13:27:10.279Z,6.60
2023-03-26T13:30:05.242Z,8.63
2023-03-26T13:32:50.868Z,9.30
2023-03-26T13:35:34.095Z,6.60
2023-03-26T13:38:40.172Z,10.25
2023-03-26T13:41:56.849Z,10.75
2023-03-26T13:44:42.471Z,8.20
2023-03-26T13:47:51.884Z,11.45
2023-03-26T13:50:44.778Z,5.90
2023-03-26T13:53:24.860Z,11.18
2023-03-26T13:56:05.807Z,9.35
2023-03-26T13:58:43.348Z,9.90
2023-03-26T14:01:23.327Z,4.25
2023-03-26T14:07:21.330Z,9.02
2023-03-26T14:10:22.912Z,12.23
2023-03-26T14:13:20.511Z,10.57
2023-03-26T14:16:17.089Z,9.43
2023-03-26T14:19:31.020Z,9.38
2023-03-26T14:22:32.788Z,8.45
2023-03-26T14:25:38.422Z,5.18
2023-03-26T14:29:03.456Z,9.70
2023-03-26T14:31:45.084Z,9.25
2023-03-26T14:34:40.335Z,5.68
2023-03-26T14:37:27.986Z,5.50
2023-03-26T14:40:15.074Z,4.68
2023-03-26T14:42:47.232Z,7.03
2023-03-26T14:45:27.517Z,6.53
2023-03-26T14:48:34.120Z,8.00
2023-03-26T14:52:08.687Z,7.10
2023-03-26T14:54:47.258Z,6.18
2023-03-26T14:57:51.079Z,9.32
2023-03-26T15:00:42.257Z,8.52
2023-03-26T15:03:16.668Z,5.63
2023-03-26T15:06:06.752Z,7.43
2023-03-26T15:09:19.207Z,9.73
2023-03-26T15:12:12.534Z,6.43
2023-03-26T15:15:03.006Z,6.00
2023-03-26T15:18:10.450Z,6.57
2023-03-26T15:21:11.232Z,6.63
2023-03-26T15:24:53.570Z,4.80
2023-03-26T15:27:52.360Z,6.18
2023-03-26T15:31:01.140Z,8.48
2023-03-26T15:33:54.774Z,4.55
2023-03-26T15:36:56.111Z,5.22
2023-03-26T15:39:59.056Z,6.55
2023-03-26T15:42:43.046Z,8.15
2023-03-26T15:45:41.003Z,5.68
2023-03-26T15:48:13.910Z,5.07
2023-03-26T15:51:12.173Z,8.35
2023-03-26T15:53:42.089Z,4.95
2023-03-26T15:57:09.906Z,5.03
2023-03-26T15:59:52.984Z,6.63
2023-03-26T16:03:17.782Z,5.18
2023-03-26T16:06:28.647Z,7.82
2023-03-26T16:09:39.037Z,5.10
2023-03-26T16:12:13.240Z,9.52
2023-03-26T16:15:11.251Z,5.95
2023-03-26T16:18:20.411Z,6.95
2023-03-26T16:20:51.165Z,7.32
2023-03-26T16:23:34.693Z,6.60
2023-03-26T16:26:57.936Z,10.35
2023-03-26T16:29:29.985Z,9.48
2023-03-26T16:32:18.495Z,8.05
2023-03-26T16:35:19.370Z,6.90
2023-03-26T16:38:11.865Z,4.88
2023-03-26T16:41:03.791Z,6.20
2023-03-26T16:43:54.021Z,4.78
2023-03-26T16:48:24.353Z,5.80
2023-03-26T16:51:32.775Z,9.15
2023-03-26T16:54:46.852Z,9.43
2023-03-26T16:57:38.651Z,8.10
2023-03-26T17:01:10.069Z,3.92
2023-03-26T17:04:09.891Z,7.50
2023-03-26T17:06:48.520Z,11.30
2023-03-26T17:09:38.172Z,5.55
2023-03-26T17:12:39.001Z,4.80
2023-03-26T17:15:41.222Z,4.63
2023-03-26T17:18:42.059Z,6.28
2023-03-26T17:21:45.932Z,5.35
2023-03-26T17:24:44.725Z,7.07
2023-03-26T17:28:00.138Z,5.38
2023-03-26T17:30:51.906Z,5.60
2023-03-26T17:33:23.814Z,2.95
2023-03-26T17:36:12.108Z,3.30
2023-03-26T17:38:39.201Z,8.88
2023-03-26T17:41:09.443Z,11.35
2023-03-26T17:43:51.296Z,7.03
2023-03-26T17:46:48.339Z,8.18
2023-03-26T17:49:27.124Z,15.45
2023-03-26T17:52:15.869Z,5.47
2023-03-26T17:54:49.299Z,7.03
2023-03-26T17:57:44.375Z,6.55
2023-03-26T18:00:25.666Z,6.47
2023-03-26T18:03:20.683Z,5.70
2023-03-26T18:05:49.283Z,8.75
2023-03-26T18:09:06.337Z,6.30
2023-03-26T18:12:50.126Z,9.73
2023-03-26T18:15:56.405Z,7.72
2023-03-26T18:18:37.495Z,6.15
2023-03-26T18:21:07.393Z,7.13
2023-03-26T18:23:48.033Z,7.15
2023-03-26T18:26:23.971Z,7.95
2023-03-26T18:28:54.825Z,8.15
2023-03-26T18:31:27.117Z,11.50
2023-03-26T18:34:06.857Z,8.45
2023-03-26T18:36:35.017Z,10.65
2023-03-26T18:39:04.540Z,6.43
2023-03-26T18:41:42.177Z,14.10
2023-03-26T18:44:20.910Z,7.45
2023-03-26T18:46:56.600Z,8.38
2023-03-26T18:49:28.647Z,7.72
2023-03-26T18:51:57.672Z,6.53
2023-03-26T18:54:34.314Z,8.40
2023-03-26T18:57:19.526Z,9.02
2023-03-26T18:59:51.847Z,10.45
2023-03-26T19:02:22.091Z,20.85
2023-03-26T19:04:58.418Z,9.73
2023-03-26T19:07:27.010Z,5.82
2023-03-26T19:09:56.941Z,6.80
2023-03-26T19:12:32.633Z,7.95
2023-03-26T19:15:08.078Z,7.03
2023-03-26T19:17:48.875Z,8.60
2023-03-26T19:20:32.849Z,11.02
2023-03-26T19:23:00.499Z,9.48
2023-03-26T19:25:44.525Z,6.43
2023-03-26T19:28:21.547Z,7.93
2023-03-26T19:31:07.383Z,6.97
2023-03-26T19:33:43.216Z,13.65
2023-03-26T19:36:15.477Z,5.25
2023-03-26T19:38:59.316Z,8.93
2023-03-26T19:41:43.794Z,12.00
2023-03-26T19:44:28.889Z,13.02
2023-03-26T19:47:29.274Z,12.48
2023-03-26T19:50:26.023Z,11.70
2023-03-26T19:53:22.623Z,13.88
2023-03-26T19:56:19.809Z,9.60
2023-03-26T19:59:03.767Z,16.38
2023-03-26T20:01:39.790Z,14.77
2023-03-26T20:04:11.675Z,10.35
2023-03-26T20:06:43.742Z,13.13
2023-03-26T20:09:13.619Z,12.18
2023-03-26T20:11:41.393Z,14.45
2023-03-26T20:14:26.119Z,11.15
2023-03-26T20:16:54.058Z,10.18
2023-03-26T20:19:21.615Z,12.68
2023-03-26T20:21:55.909Z,9.52
2023-03-26T20:24:24.928Z,12.43
2023-03-26T20:26:52.489Z,10.15
2023-03-26T20:31:51.080Z,10.48
2023-03-26T20:34:23.908Z,12.90
2023-03-26T20:37:01.380Z,11.13
2023-03-26T20:39:29.103Z,12.27
2023-03-26T20:41:56.590Z,12.75
2023-03-26T20:44:26.928Z,12.93
2023-03-26T20:46:56.634Z,10.68
2023-03-26T20:52:40.537Z,21.08
2023-03-26T20:55:15.837Z,15.45
2023-03-26T20:57:46.412Z,14.90
2023-03-26T21:00:22.628Z,13.15
2023-03-26T21:02:53.728Z,11.65
2023-03-26T21:05:25.157Z,18.88
2023-03-26T21:07:55.478Z,19.23
2023-03-26T21:10:26.103Z,16.58
2023-03-26T21:13:06.167Z,15.95
2023-03-26T21:15:34.186Z,12.95
2023-03-26T21:18:01.910Z,17.60
2023-03-26T21:20:29.995Z,15.10
2023-03-26T21:23:15.458Z,12.13
2023-03-26T21:26:25.419Z,20.25
2023-03-26T21:28:55.140Z,19.95
2023-03-26T21:31:24.664Z,21.77
2023-03-26T21:33:52.296Z,16.33
2023-03-26T21:36:20.698Z,19.48
2023-03-26T21:38:48.338Z,26.48
2023-03-26T21:44:04.476Z,14.38
2023-03-26T21:46:33.571Z,25.15
2023-03-26T21:49:01.642Z,27.02
2023-03-26T21:51:30.329Z,23.67
2023-03-26T21:53:57.958Z,23.48
2023-03-26T21:57:08.006Z,18.73
2023-03-26T21:59:53.487Z,23.55
2023-03-26T22:02:55.100Z,19.92
2023-03-26T22:05:57.640Z,17.27
2023-03-26T22:08:38.974Z,29.65
2023-03-26T22:13:56.517Z,24.70
2023-03-26T22:17:01.167Z,23.30
2023-03-26T22:19:19.369Z,18.65
2023-03-26T22:22:09.671Z,15.80
2023-03-26T22:24:37.108Z,23.08
2023-03-26T22:27:04.641Z,23.23
2023-03-26T22:32:04.814Z,20.15
2023-03-26T22:34:35.178Z,17.33
2023-03-26T22:37:02.548Z,23.30
2023-03-26T22:39:29.934Z,18.58
2023-03-26T22:41:57.698Z,20.88
2023-03-26T22:44:25.048Z,22.15
2023-03-26T22:46:52.644Z,29.88
2023-03-26T22:49:24.194Z,22.58
2023-03-26T22:51:51.713Z,21.23
2023-03-26T22:59:30.631Z,20.30
2023-03-26T23:02:17.960Z,17.48
2023-03-26T23:04:46.587Z,25.30
2023-03-26T23:07:29.805Z,18.15
2023-03-26T23:09:58.103Z,19.98
2023-03-26T23:12:25.363Z,14.75
2023-03-26T23:14:55.046Z,16.83
2023-03-26T23:17:33.298Z,22.48
2023-03-26T23:20:01.403Z,18.00
2023-03-26T23:22:32.803Z,16.98
2023-03-26T23:25:00.126Z,14.27
2023-03-26T23:27:28.226Z,20.20
2023-03-26T23:29:56.100Z,18.10
2023-03-26T23:32:25.373Z,16.83
2023-03-26T23:34:56.150Z,14.07
2023-03-26T23:37:25.697Z,14.68
2023-03-26T23:39:54.896Z,21.35
2023-03-26T23:42:29.205Z,15.07
2023-03-26T23:44:57.730Z,18.50
2023-03-26T23:47:34.672Z,11.80
2023-03-26T23:50:04.378Z,21.02
2023-03-26T23:52:31.912Z,13.70
2023-03-26T23:55:02.510Z,17.63
2023-03-26T23:57:30.833Z,18.10
2023-03-26T23:59:58.496Z,12.65
